sensor_id;sensor_type;location;lat;lon;timestamp;pressure;altitude;pressure_sealevel;temperature
67829;BMP280;54626;45.436;10.942;2023-02-28T00:01:18;101151.28;;;6.21
67829;BMP280;54626;45.436;10.942;2023-02-28T00:03:45;101148.00;;;6.17
67829;BMP280;54626;45.436;10.942;2023-02-28T00:06:12;101151.47;;;6.12
67829;BMP280;54626;45.436;10.942;2023-02-28T00:08:38;101154.41;;;6.09
67829;BMP280;54626;45.436;10.942;2023-02-28T00:11:09;101164.81;;;5.99
67829;BMP280;54626;45.436;10.942;2023-02-28T00:13:37;101155.28;;;5.95
67829;BMP280;54626;45.436;10.942;2023-02-28T00:16:06;101168.81;;;5.98
67829;BMP280;54626;45.436;10.942;2023-02-28T00:18:33;101175.63;;;6.08
67829;BMP280;54626;45.436;10.942;2023-02-28T00:21:00;101175.56;;;6.03
67829;BMP280;54626;45.436;10.942;2023-02-28T00:23:27;101172.78;;;5.97
67829;BMP280;54626;45.436;10.942;2023-02-28T00:25:54;101169.97;;;5.92
67829;BMP280;54626;45.436;10.942;2023-02-28T00:28:20;101181.59;;;5.81
67829;BMP280;54626;45.436;10.942;2023-02-28T00:30:47;101171.59;;;5.78
67829;BMP280;54626;45.436;10.942;2023-02-28T00:33:14;101176.84;;;5.82
67829;BMP280;54626;45.436;10.942;2023-02-28T00:35:40;101180.38;;;5.82
67829;BMP280;54626;45.436;10.942;2023-02-28T00:38:07;101179.50;;;5.71
67829;BMP280;54626;45.436;10.942;2023-02-28T00:40:33;101180.25;;;5.71
67829;BMP280;54626;45.436;10.942;2023-02-28T00:43:00;101186.81;;;5.79
67829;BMP280;54626;45.436;10.942;2023-02-28T00:45:26;101185.63;;;5.86
67829;BMP280;54626;45.436;10.942;2023-02-28T00:47:53;101184.63;;;5.83
67829;BMP280;54626;45.436;10.942;2023-02-28T00:50:20;101185.38;;;5.84
67829;BMP280;54626;45.436;10.942;2023-02-28T00:52:47;101186.44;;;5.92
67829;BMP280;54626;45.436;10.942;2023-02-28T00:55:17;101190.22;;;5.94
67829;BMP280;54626;45.436;10.942;2023-02-28T00:57:44;101194.19;;;5.93
67829;BMP280;54626;45.436;10.942;2023-02-28T01:00:11;101194.66;;;5.92
67829;BMP280;54626;45.436;10.942;2023-02-28T01:02:38;101195.59;;;5.83
67829;BMP280;54626;45.436;10.942;2023-02-28T01:05:05;101185.91;;;5.88
67829;BMP280;54626;45.436;10.942;2023-02-28T01:07:31;101198.13;;;5.87
67829;BMP280;54626;45.436;10.942;2023-02-28T01:09:57;101187.38;;;5.83
67829;BMP280;54626;45.436;10.942;2023-02-28T01:12:24;101191.34;;;5.82
67829;BMP280;54626;45.436;10.942;2023-02-28T01:14:50;101195.06;;;5.79
67829;BMP280;54626;45.436;10.942;2023-02-28T01:17:17;101205.53;;;5.81
67829;BMP280;54626;45.436;10.942;2023-02-28T01:19:45;101213.09;;;5.86
67829;BMP280;54626;45.436;10.942;2023-02-28T01:22:11;101206.25;;;5.76
67829;BMP280;54626;45.436;10.942;2023-02-28T01:24:38;101207.75;;;5.77
67829;BMP280;54626;45.436;10.942;2023-02-28T01:27:04;101199.19;;;5.69
67829;BMP280;54626;45.436;10.942;2023-02-28T01:29:31;101208.38;;;5.66
67829;BMP280;54626;45.436;10.942;2023-02-28T01:31:57;101198.38;;;5.63
67829;BMP280;54626;45.436;10.942;2023-02-28T01:34:25;101210.34;;;5.66
67829;BMP280;54626;45.436;10.942;2023-02-28T01:36:52;101195.84;;;5.60
67829;BMP280;54626;45.436;10.942;2023-02-28T01:39:18;101196.75;;;5.51
67829;BMP280;54626;45.436;10.942;2023-02-28T01:41:45;101205.94;;;5.48
67829;BMP280;54626;45.436;10.942;2023-02-28T01:47:15;101197.19;;;5.45
67829;BMP280;54626;45.436;10.942;2023-02-28T01:49:42;101193.88;;;5.41
67829;BMP280;54626;45.436;10.942;2023-02-28T01:52:08;101206.66;;;5.49
67829;BMP280;54626;45.436;10.942;2023-02-28T01:54:54;101196.91;;;5.43
67829;BMP280;54626;45.436;10.942;2023-02-28T01:57:32;101205.69;;;5.47
67829;BMP280;54626;45.436;10.942;2023-02-28T02:00:09;101211.69;;;5.50
67829;BMP280;54626;45.436;10.942;2023-02-28T02:02:37;101203.19;;;5.48
67829;BMP280;54626;45.436;10.942;2023-02-28T02:05:07;101200.88;;;5.61
67829;BMP280;54626;45.436;10.942;2023-02-28T02:07:38;101190.84;;;5.58
67829;BMP280;54626;45.436;10.942;2023-02-28T02:18:54;101194.41;;;5.64
67829;BMP280;54626;45.436;10.942;2023-02-28T02:27:26;101193.59;;;5.58
67829;BMP280;54626;45.436;10.942;2023-02-28T02:33:20;101186.50;;;5.52
67829;BMP280;54626;45.436;10.942;2023-02-28T02:35:56;101186.50;;;5.52
67829;BMP280;54626;45.436;10.942;2023-02-28T02:38:36;101181.75;;;5.47
67829;BMP280;54626;45.436;10.942;2023-02-28T02:41:28;101180.06;;;5.55
67829;BMP280;54626;45.436;10.942;2023-02-28T02:46:38;101186.78;;;5.54
67829;BMP280;54626;45.436;10.942;2023-02-28T02:49:13;101192.34;;;5.59
67829;BMP280;54626;45.436;10.942;2023-02-28T02:51:42;101185.63;;;5.60
67829;BMP280;54626;45.436;10.942;2023-02-28T02:54:40;101180.94;;;5.66
67829;BMP280;54626;45.436;10.942;2023-02-28T02:57:13;101180.47;;;5.68
67829;BMP280;54626;45.436;10.942;2023-02-28T02:59:42;101184.25;;;5.70
67829;BMP280;54626;45.436;10.942;2023-02-28T03:02:12;101179.03;;;5.72
67829;BMP280;54626;45.436;10.942;2023-02-28T03:04:48;101186.78;;;5.74
67829;BMP280;54626;45.436;10.942;2023-02-28T03:07:18;101187.81;;;5.76
67829;BMP280;54626;45.436;10.942;2023-02-28T03:09:55;101193.31;;;5.82
67829;BMP280;54626;45.436;10.942;2023-02-28T03:12:30;101196.34;;;5.84
67829;BMP280;54626;45.436;10.942;2023-02-28T03:15:18;101190.31;;;5.80
67829;BMP280;54626;45.436;10.942;2023-02-28T03:18:08;101188.31;;;5.80
67829;BMP280;54626;45.436;10.942;2023-02-28T03:21:01;101192.31;;;5.79
67829;BMP280;54626;45.436;10.942;2023-02-28T03:26:12;101192.31;;;5.79
67829;BMP280;54626;45.436;10.942;2023-02-28T03:32:02;101188.06;;;5.78
67829;BMP280;54626;45.436;10.942;2023-02-28T03:34:38;101181.06;;;5.77
67829;BMP280;54626;45.436;10.942;2023-02-28T03:37:11;101185.75;;;5.71
67829;BMP280;54626;45.436;10.942;2023-02-28T03:39:43;101189.44;;;5.68
67829;BMP280;54626;45.436;10.942;2023-02-28T03:42:14;101183.09;;;5.57
67829;BMP280;54626;45.436;10.942;2023-02-28T03:44:52;101188.78;;;5.53
67829;BMP280;54626;45.436;10.942;2023-02-28T03:47:36;101187.00;;;5.50
67829;BMP280;54626;45.436;10.942;2023-02-28T03:52:48;101196.50;;;5.30
67829;BMP280;54626;45.436;10.942;2023-02-28T03:55:16;101201.03;;;5.18
67829;BMP280;54626;45.436;10.942;2023-02-28T04:00:21;101189.16;;;5.07
67829;BMP280;54626;45.436;10.942;2023-02-28T04:02:53;101206.66;;;5.09
67829;BMP280;54626;45.436;10.942;2023-02-28T04:05:21;101201.84;;;5.04
67829;BMP280;54626;45.436;10.942;2023-02-28T04:07:48;101214.44;;;5.11
67829;BMP280;54626;45.436;10.942;2023-02-28T04:10:16;101209.22;;;5.13
67829;BMP280;54626;45.436;10.942;2023-02-28T04:12:42;101207.22;;;5.13
67829;BMP280;54626;45.436;10.942;2023-02-28T04:15:09;101218.97;;;5.14
67829;BMP280;54626;45.436;10.942;2023-02-28T04:17:37;101221.41;;;5.12
67829;BMP280;54626;45.436;10.942;2023-02-28T04:20:05;101222.81;;;5.07
67829;BMP280;54626;45.436;10.942;2023-02-28T04:22:36;101225.47;;;5.02
67829;BMP280;54626;45.436;10.942;2023-02-28T04:25:04;101225.94;;;5.00
67829;BMP280;54626;45.436;10.942;2023-02-28T04:27:31;101226.94;;;4.97
67829;BMP280;54626;45.436;10.942;2023-02-28T04:29:58;101232.03;;;4.90
67829;BMP280;54626;45.436;10.942;2023-02-28T04:32:24;101237.91;;;4.83
67829;BMP280;54626;45.436;10.942;2023-02-28T04:34:51;101230.34;;;4.78
67829;BMP280;54626;45.436;10.942;2023-02-28T04:37:17;101229.50;;;4.72
67829;BMP280;54626;45.436;10.942;2023-02-28T04:39:44;101228.47;;;4.69
67829;BMP280;54626;45.436;10.942;2023-02-28T04:42:11;101225.47;;;4.67
67829;BMP280;54626;45.436;10.942;2023-02-28T04:44:41;101220.38;;;4.60
67829;BMP280;54626;45.436;10.942;2023-02-28T04:47:07;101230.13;;;4.61
67829;BMP280;54626;45.436;10.942;2023-02-28T04:49:34;101216.13;;;4.59
67829;BMP280;54626;45.436;10.942;2023-02-28T04:52:00;101221.31;;;4.57
67829;BMP280;54626;45.436;10.942;2023-02-28T04:54:27;101226.31;;;4.59
67829;BMP280;54626;45.436;10.942;2023-02-28T04:56:54;101223.28;;;4.57
67829;BMP280;54626;45.436;10.942;2023-02-28T04:59:22;101214.72;;;4.64
67829;BMP280;54626;45.436;10.942;2023-02-28T05:01:49;101222.72;;;4.67
67829;BMP280;54626;45.436;10.942;2023-02-28T05:04:16;101211.97;;;4.64
67829;BMP280;54626;45.436;10.942;2023-02-28T05:06:43;101217.59;;;4.75
67829;BMP280;54626;45.436;10.942;2023-02-28T05:09:10;101219.47;;;4.83
67829;BMP280;54626;45.436;10.942;2023-02-28T05:11:40;101225.13;;;4.94
67829;BMP280;54626;45.436;10.942;2023-02-28T05:14:12;101218.56;;;5.06
67829;BMP280;54626;45.436;10.942;2023-02-28T05:16:39;101216.22;;;5.14
67829;BMP280;54626;45.436;10.942;2023-02-28T05:19:06;101230.53;;;5.23
67829;BMP280;54626;45.436;10.942;2023-02-28T05:21:36;101222.19;;;5.32
67829;BMP280;54626;45.436;10.942;2023-02-28T05:24:11;101219.50;;;5.38
67829;BMP280;54626;45.436;10.942;2023-02-28T05:26:42;101218.94;;;5.34
67829;BMP280;54626;45.436;10.942;2023-02-28T05:29:09;101226.22;;;5.37
67829;BMP280;54626;45.436;10.942;2023-02-28T05:31:36;101224.50;;;5.39
67829;BMP280;54626;45.436;10.942;2023-02-28T05:34:09;101222.44;;;5.34
67829;BMP280;54626;45.436;10.942;2023-02-28T05:36:40;101222.72;;;5.36
67829;BMP280;54626;45.436;10.942;2023-02-28T05:39:07;101220.47;;;5.35
67829;BMP280;54626;45.436;10.942;2023-02-28T05:41:42;101226.00;;;5.40
67829;BMP280;54626;45.436;10.942;2023-02-28T05:44:09;101231.44;;;5.35
67829;BMP280;54626;45.436;10.942;2023-02-28T05:46:36;101219.66;;;5.29
67829;BMP280;54626;45.436;10.942;2023-02-28T05:49:03;101216.69;;;5.32
67829;BMP280;54626;45.436;10.942;2023-02-28T05:51:29;101224.44;;;5.34
67829;BMP280;54626;45.436;10.942;2023-02-28T05:54:00;101231.88;;;5.33
67829;BMP280;54626;45.436;10.942;2023-02-28T05:56:28;101222.94;;;5.33
67829;BMP280;54626;45.436;10.942;2023-02-28T05:58:55;101230.13;;;5.30
67829;BMP280;54626;45.436;10.942;2023-02-28T06:01:36;101233.38;;;5.29
67829;BMP280;54626;45.436;10.942;2023-02-28T06:04:05;101240.13;;;5.33
67829;BMP280;54626;45.436;10.942;2023-02-28T06:06:33;101240.34;;;5.30
67829;BMP280;54626;45.436;10.942;2023-02-28T06:09:06;101245.06;;;5.29
67829;BMP280;54626;45.436;10.942;2023-02-28T06:11:33;101249.81;;;5.29
67829;BMP280;54626;45.436;10.942;2023-02-28T06:14:01;101244.50;;;5.25
67829;BMP280;54626;45.436;10.942;2023-02-28T06:16:30;101250.94;;;5.22
67829;BMP280;54626;45.436;10.942;2023-02-28T06:18:58;101253.97;;;5.24
67829;BMP280;54626;45.436;10.942;2023-02-28T06:21:26;101257.75;;;5.27
67829;BMP280;54626;45.436;10.942;2023-02-28T06:23:57;101251.72;;;5.23
67829;BMP280;54626;45.436;10.942;2023-02-28T06:26:24;101259.66;;;5.21
67829;BMP280;54626;45.436;10.942;2023-02-28T06:28:51;101258.50;;;5.27
67829;BMP280;54626;45.436;10.942;2023-02-28T06:31:20;101269.28;;;5.31
67829;BMP280;54626;45.436;10.942;2023-02-28T06:33:48;101269.00;;;5.29
67829;BMP280;54626;45.436;10.942;2023-02-28T06:36:16;101270.09;;;5.37
67829;BMP280;54626;45.436;10.942;2023-02-28T06:38:43;101273.41;;;5.41
67829;BMP280;54626;45.436;10.942;2023-02-28T06:41:11;101275.19;;;5.44
67829;BMP280;54626;45.436;10.942;2023-02-28T06:43:40;101268.78;;;5.52
67829;BMP280;54626;45.436;10.942;2023-02-28T06:46:09;101273.94;;;5.64
67829;BMP280;54626;45.436;10.942;2023-02-28T06:48:36;101277.03;;;5.72
67829;BMP280;54626;45.436;10.942;2023-02-28T06:51:04;101283.06;;;5.76
67829;BMP280;54626;45.436;10.942;2023-02-28T06:53:31;101285.88;;;5.81
67829;BMP280;54626;45.436;10.942;2023-02-28T06:55:57;101293.72;;;5.88
67829;BMP280;54626;45.436;10.942;2023-02-28T06:58:24;101281.13;;;6.02
67829;BMP280;54626;45.436;10.942;2023-02-28T07:00:51;101290.91;;;6.08
67829;BMP280;54626;45.436;10.942;2023-02-28T07:03:19;101277.53;;;6.16
67829;BMP280;54626;45.436;10.942;2023-02-28T07:05:46;101285.28;;;6.17
67829;BMP280;54626;45.436;10.942;2023-02-28T07:08:13;101285.81;;;6.21
67829;BMP280;54626;45.436;10.942;2023-02-28T07:10:44;101282.44;;;6.32
67829;BMP280;54626;45.436;10.942;2023-02-28T07:13:13;101290.31;;;6.49
67829;BMP280;54626;45.436;10.942;2023-02-28T07:15:39;101284.81;;;6.49
67829;BMP280;54626;45.436;10.942;2023-02-28T07:18:09;101291.63;;;6.54
67829;BMP280;54626;45.436;10.942;2023-02-28T07:20:39;101283.66;;;6.56
67829;BMP280;54626;45.436;10.942;2023-02-28T07:23:13;101282.44;;;6.62
67829;BMP280;54626;45.436;10.942;2023-02-28T07:25:49;101287.19;;;6.62
67829;BMP280;54626;45.436;10.942;2023-02-28T07:28:16;101297.03;;;6.74
67829;BMP280;54626;45.436;10.942;2023-02-28T07:30:43;101283.34;;;6.79
67829;BMP280;54626;45.436;10.942;2023-02-28T07:33:09;101301.63;;;6.88
67829;BMP280;54626;45.436;10.942;2023-02-28T07:35:39;101295.44;;;6.98
67829;BMP280;54626;45.436;10.942;2023-02-28T07:38:06;101298.94;;;6.93
67829;BMP280;54626;45.436;10.942;2023-02-28T07:40:35;101295.91;;;6.91
67829;BMP280;54626;45.436;10.942;2023-02-28T07:43:02;101291.69;;;6.96
67829;BMP280;54626;45.436;10.942;2023-02-28T07:45:30;101296.84;;;6.83
67829;BMP280;54626;45.436;10.942;2023-02-28T07:48:00;101286.84;;;6.80
67829;BMP280;54626;45.436;10.942;2023-02-28T07:50:27;101291.69;;;6.96
67829;BMP280;54626;45.436;10.942;2023-02-28T07:52:58;101282.09;;;7.17
67829;BMP280;54626;45.436;10.942;2023-02-28T07:55:24;101294.59;;;7.18
67829;BMP280;54626;45.436;10.942;2023-02-28T07:57:51;101300.38;;;7.25
67829;BMP280;54626;45.436;10.942;2023-02-28T08:00:18;101292.38;;;7.22
67829;BMP280;54626;45.436;10.942;2023-02-28T08:02:49;101286.72;;;7.41
67829;BMP280;54626;45.436;10.942;2023-02-28T08:05:15;101298.72;;;7.44
67829;BMP280;54626;45.436;10.942;2023-02-28T08:07:42;101304.53;;;7.57
67829;BMP280;54626;45.436;10.942;2023-02-28T08:10:09;101299.63;;;7.72
67829;BMP280;54626;45.436;10.942;2023-02-28T08:12:36;101294.88;;;7.72
67829;BMP280;54626;45.436;10.942;2023-02-28T08:15:02;101295.13;;;7.69
67829;BMP280;54626;45.436;10.942;2023-02-28T08:17:29;101298.34;;;7.67
67829;BMP280;54626;45.436;10.942;2023-02-28T08:19:55;101299.88;;;7.74
67829;BMP280;54626;45.436;10.942;2023-02-28T08:22:22;101301.41;;;7.80
67829;BMP280;54626;45.436;10.942;2023-02-28T08:24:51;101302.47;;;7.94
67829;BMP280;54626;45.436;10.942;2023-02-28T08:27:18;101302.69;;;7.96
67829;BMP280;54626;45.436;10.942;2023-02-28T08:29:44;101303.97;;;8.00
67829;BMP280;54626;45.436;10.942;2023-02-28T08:32:11;101303.50;;;8.18
67829;BMP280;54626;45.436;10.942;2023-02-28T08:34:54;101308.50;;;8.14
67829;BMP280;54626;45.436;10.942;2023-02-28T08:37:20;101313.78;;;8.28
67829;BMP280;54626;45.436;10.942;2023-02-28T08:39:46;101312.28;;;8.33
67829;BMP280;54626;45.436;10.942;2023-02-28T08:42:13;101309.56;;;8.49
67829;BMP280;54626;45.436;10.942;2023-02-28T08:44:40;101326.59;;;8.59
67829;BMP280;54626;45.436;10.942;2023-02-28T08:47:06;101310.56;;;8.52
67829;BMP280;54626;45.436;10.942;2023-02-28T08:49:33;101310.81;;;8.48
67829;BMP280;54626;45.436;10.942;2023-02-28T08:52:00;101307.28;;;8.59
67829;BMP280;54626;45.436;10.942;2023-02-28T08:54:26;101309.31;;;8.80
67829;BMP280;54626;45.436;10.942;2023-02-28T08:56:56;101307.53;;;8.88
67829;BMP280;54626;45.436;10.942;2023-02-28T08:59:23;101310.03;;;8.92
67829;BMP280;54626;45.436;10.942;2023-02-28T09:01:50;101316.31;;;8.92
67829;BMP280;54626;45.436;10.942;2023-02-28T09:04:17;101311.28;;;8.80
67829;BMP280;54626;45.436;10.942;2023-02-28T09:06:46;101317.56;;;8.64
67829;BMP280;54626;45.436;10.942;2023-02-28T09:09:15;101312.06;;;8.53
67829;BMP280;54626;45.436;10.942;2023-02-28T09:11:43;101314.09;;;8.74
67829;BMP280;54626;45.436;10.942;2023-02-28T09:14:09;101315.56;;;8.81
67829;BMP280;54626;45.436;10.942;2023-02-28T09:16:36;101323.28;;;9.04
67829;BMP280;54626;45.436;10.942;2023-02-28T09:19:03;101323.78;;;9.02
67829;BMP280;54626;45.436;10.942;2023-02-28T09:21:29;101330.78;;;9.25
67829;BMP280;54626;45.436;10.942;2023-02-28T09:23:58;101323.47;;;9.33
67829;BMP280;54626;45.436;10.942;2023-02-28T09:26:27;101325.25;;;9.31
67829;BMP280;54626;45.436;10.942;2023-02-28T09:29:08;101316.41;;;9.43
67829;BMP280;54626;45.436;10.942;2023-02-28T09:31:34;101321.84;;;9.65
67829;BMP280;54626;45.436;10.942;2023-02-28T09:34:01;101326.81;;;9.78
67829;BMP280;54626;45.436;10.942;2023-02-28T09:36:27;101325.47;;;9.95
67829;BMP280;54626;45.436;10.942;2023-02-28T09:39:09;101322.09;;;10.13
67829;BMP280;54626;45.436;10.942;2023-02-28T09:41:44;101314.34;;;9.60
67829;BMP280;54626;45.436;10.942;2023-02-28T09:44:24;101321.91;;;10.05
67829;BMP280;54626;45.436;10.942;2023-02-28T09:49:47;101317.81;;;10.76
67829;BMP280;54626;45.436;10.942;2023-02-28T09:52:29;101320.66;;;10.70
67829;BMP280;54626;45.436;10.942;2023-02-28T09:57:45;101310.63;;;10.68
67829;BMP280;54626;45.436;10.942;2023-02-28T10:00:18;101323.66;;;10.96
67829;BMP280;54626;45.436;10.942;2023-02-28T10:05:34;101311.66;;;10.88
67829;BMP280;54626;45.436;10.942;2023-02-28T10:08:17;101313.31;;;11.21
67829;BMP280;54626;45.436;10.942;2023-02-28T10:10:47;101313.53;;;11.04
67829;BMP280;54626;45.436;10.942;2023-02-28T10:13:20;101319.09;;;11.23
67829;BMP280;54626;45.436;10.942;2023-02-28T10:15:52;101320.53;;;11.47
67829;BMP280;54626;45.436;10.942;2023-02-28T10:18:25;101310.31;;;11.19
67829;BMP280;54626;45.436;10.942;2023-02-28T10:20:54;101318.72;;;10.89
67829;BMP280;54626;45.436;10.942;2023-02-28T10:23:28;101311.81;;;11.20
67829;BMP280;54626;45.436;10.942;2023-02-28T10:26:14;101315.31;;;11.62
67829;BMP280;54626;45.436;10.942;2023-02-28T10:28:43;101313.91;;;11.56
67829;BMP280;54626;45.436;10.942;2023-02-28T10:31:14;101308.13;;;11.54
67829;BMP280;54626;45.436;10.942;2023-02-28T10:33:44;101304.41;;;11.51
67829;BMP280;54626;45.436;10.942;2023-02-28T10:36:19;101303.06;;;11.58
67829;BMP280;54626;45.436;10.942;2023-02-28T10:38:47;101311.56;;;11.78
67829;BMP280;54626;45.436;10.942;2023-02-28T10:41:25;101312.19;;;11.71
67829;BMP280;54626;45.436;10.942;2023-02-28T10:43:53;101308.22;;;11.67
67829;BMP280;54626;45.436;10.942;2023-02-28T10:46:39;101305.81;;;11.95
67829;BMP280;54626;45.436;10.942;2023-02-28T10:49:14;101310.19;;;12.03
67829;BMP280;54626;45.436;10.942;2023-02-28T10:51:41;101304.31;;;11.94
67829;BMP280;54626;45.436;10.942;2023-02-28T10:54:19;101298.28;;;12.08
67829;BMP280;54626;45.436;10.942;2023-02-28T10:59:33;101284.78;;;12.18
67829;BMP280;54626;45.436;10.942;2023-02-28T11:01:59;101286.31;;;12.00
67829;BMP280;54626;45.436;10.942;2023-02-28T11:07:04;101286.59;;;12.15
67829;BMP280;54626;45.436;10.942;2023-02-28T11:09:36;101292.91;;;12.16
67829;BMP280;54626;45.436;10.942;2023-02-28T11:12:10;101279.38;;;11.94
67829;BMP280;54626;45.436;10.942;2023-02-28T11:14:49;101274.81;;;12.09
67829;BMP280;54626;45.436;10.942;2023-02-28T11:17:24;101276.69;;;12.19
67829;BMP280;54626;45.436;10.942;2023-02-28T11:19:55;101273.34;;;12.65
67829;BMP280;54626;45.436;10.942;2023-02-28T11:22:27;101282.97;;;12.77
67829;BMP280;54626;45.436;10.942;2023-02-28T11:25:00;101268.78;;;12.23
67829;BMP280;54626;45.436;10.942;2023-02-28T11:30:00;101264.47;;;12.54
67829;BMP280;54626;45.436;10.942;2023-02-28T11:32:29;101257.97;;;12.07
67829;BMP280;54626;45.436;10.942;2023-02-28T11:35:17;101247.09;;;12.53
67829;BMP280;54626;45.436;10.942;2023-02-28T11:37:48;101240.69;;;12.58
67829;BMP280;54626;45.436;10.942;2023-02-28T11:40:16;101245.59;;;12.78
67829;BMP280;54626;45.436;10.942;2023-02-28T11:48:06;101239.50;;;13.18
67829;BMP280;54626;45.436;10.942;2023-02-28T11:56:25;101229.97;;;13.14
67829;BMP280;54626;45.436;10.942;2023-02-28T12:01:35;101216.25;;;13.29
67829;BMP280;54626;45.436;10.942;2023-02-28T12:07:15;101204.56;;;12.97
67829;BMP280;54626;45.436;10.942;2023-02-28T12:15:40;101196.16;;;13.36
67829;BMP280;54626;45.436;10.942;2023-02-28T12:23:47;101187.47;;;14.00
67829;BMP280;54626;45.436;10.942;2023-02-28T12:31:59;101160.47;;;13.60
67829;BMP280;54626;45.436;10.942;2023-02-28T12:34:41;101163.50;;;13.90
67829;BMP280;54626;45.436;10.942;2023-02-28T12:37:23;101170.84;;;14.08
67829;BMP280;54626;45.436;10.942;2023-02-28T12:39:55;101156.09;;;13.92
67829;BMP280;54626;45.436;10.942;2023-02-28T12:42:30;101163.00;;;13.99
67829;BMP280;54626;45.436;10.942;2023-02-28T12:45:07;101155.19;;;13.97
67829;BMP280;54626;45.436;10.942;2023-02-28T12:47:38;101153.19;;;13.98
67829;BMP280;54626;45.436;10.942;2023-02-28T12:50:08;101158.53;;;14.24
67829;BMP280;54626;45.436;10.942;2023-02-28T12:52:53;101149.31;;;14.36
67829;BMP280;54626;45.436;10.942;2023-02-28T13:00:34;101147.97;;;14.22
67829;BMP280;54626;45.436;10.942;2023-02-28T13:05:53;101134.59;;;13.93
67829;BMP280;54626;45.436;10.942;2023-02-28T13:13:58;101134.31;;;14.04
67829;BMP280;54626;45.436;10.942;2023-02-28T13:16:25;101120.97;;;13.21
67829;BMP280;54626;45.436;10.942;2023-02-28T13:18:51;101111.56;;;13.64
67829;BMP280;54626;45.436;10.942;2023-02-28T13:21:43;101115.06;;;14.13
67829;BMP280;54626;45.436;10.942;2023-02-28T13:24:36;101116.75;;;14.16
67829;BMP280;54626;45.436;10.942;2023-02-28T13:29:35;101103.81;;;13.70
67829;BMP280;54626;45.436;10.942;2023-02-28T13:34:28;101111.97;;;14.17
67829;BMP280;54626;45.436;10.942;2023-02-28T13:39:45;101113.69;;;14.34
67829;BMP280;54626;45.436;10.942;2023-02-28T13:42:36;101112.38;;;14.28
67829;BMP280;54626;45.436;10.942;2023-02-28T13:47:39;101103.88;;;14.41
67829;BMP280;54626;45.436;10.942;2023-02-28T13:55:29;101101.28;;;14.93
67829;BMP280;54626;45.436;10.942;2023-02-28T14:01:08;101096.56;;;14.58
67829;BMP280;54626;45.436;10.942;2023-02-28T14:04:06;101089.38;;;14.78
67829;BMP280;54626;45.436;10.942;2023-02-28T14:06:37;101090.16;;;14.86
67829;BMP280;54626;45.436;10.942;2023-02-28T14:11:40;101076.03;;;14.98
67829;BMP280;54626;45.436;10.942;2023-02-28T14:14:09;101083.53;;;14.46
67829;BMP280;54626;45.436;10.942;2023-02-28T14:17:04;101083.94;;;14.65
67829;BMP280;54626;45.436;10.942;2023-02-28T14:19:32;101083.09;;;14.92
67829;BMP280;54626;45.436;10.942;2023-02-28T14:22:39;101069.59;;;14.46
67829;BMP280;54626;45.436;10.942;2023-02-28T14:25:55;101076.28;;;14.08
67829;BMP280;54626;45.436;10.942;2023-02-28T14:30:57;101068.25;;;14.32
67829;BMP280;54626;45.436;10.942;2023-02-28T14:38:43;101071.41;;;13.45
67829;BMP280;54626;45.436;10.942;2023-02-28T14:41:22;101057.84;;;13.62
67829;BMP280;54626;45.436;10.942;2023-02-28T14:43:53;101055.19;;;13.57
67829;BMP280;54626;45.436;10.942;2023-02-28T14:46:26;101053.34;;;13.59
67829;BMP280;54626;45.436;10.942;2023-02-28T14:48:55;101062.72;;;13.76
67829;BMP280;54626;45.436;10.942;2023-02-28T14:51:23;101061.31;;;13.83
67829;BMP280;54626;45.436;10.942;2023-02-28T14:53:56;101055.22;;;13.36
67829;BMP280;54626;45.436;10.942;2023-02-28T14:56:28;101058.69;;;13.29
67829;BMP280;54626;45.436;10.942;2023-02-28T14:58:57;101052.31;;;13.21
67829;BMP280;54626;45.436;10.942;2023-02-28T15:01:25;101054.00;;;13.24
67829;BMP280;54626;45.436;10.942;2023-02-28T15:04:04;101044.81;;;12.96
67829;BMP280;54626;45.436;10.942;2023-02-28T15:06:31;101065.03;;;12.96
67829;BMP280;54626;45.436;10.942;2023-02-28T15:09:15;101053.34;;;12.65
67829;BMP280;54626;45.436;10.942;2023-02-28T15:11:47;101050.31;;;12.55
67829;BMP280;54626;45.436;10.942;2023-02-28T15:14:18;101054.88;;;12.53
67829;BMP280;54626;45.436;10.942;2023-02-28T15:16:48;101056.53;;;12.48
67829;BMP280;54626;45.436;10.942;2023-02-28T15:19:30;101049.69;;;12.49
67829;BMP280;54626;45.436;10.942;2023-02-28T15:22:26;101052.53;;;12.57
67829;BMP280;54626;45.436;10.942;2023-02-28T15:24:57;101049.56;;;12.55
67829;BMP280;54626;45.436;10.942;2023-02-28T15:27:28;101052.88;;;12.53
67829;BMP280;54626;45.436;10.942;2023-02-28T15:30:21;101057.59;;;12.45
67829;BMP280;54626;45.436;10.942;2023-02-28T15:33:05;101042.03;;;12.29
67829;BMP280;54626;45.436;10.942;2023-02-28T15:35:35;101043.13;;;12.14
67829;BMP280;54626;45.436;10.942;2023-02-28T15:38:26;101048.22;;;12.22
67829;BMP280;54626;45.436;10.942;2023-02-28T15:40:53;101044.06;;;12.16
67829;BMP280;54626;45.436;10.942;2023-02-28T15:43:24;101048.53;;;12.19
67829;BMP280;54626;45.436;10.942;2023-02-28T15:46:00;101056.22;;;12.26
67829;BMP280;54626;45.436;10.942;2023-02-28T15:48:31;101055.03;;;12.47
67829;BMP280;54626;45.436;10.942;2023-02-28T15:51:06;101053.47;;;12.72
67829;BMP280;54626;45.436;10.942;2023-02-28T15:53:37;101055.47;;;12.85
67829;BMP280;54626;45.436;10.942;2023-02-28T15:58:44;101057.22;;;12.95
67829;BMP280;54626;45.436;10.942;2023-02-28T16:01:27;101048.22;;;13.02
67829;BMP280;54626;45.436;10.942;2023-02-28T16:03:57;101057.78;;;12.93
67829;BMP280;54626;45.436;10.942;2023-02-28T16:06:37;101049.50;;;12.81
67829;BMP280;54626;45.436;10.942;2023-02-28T16:09:08;101054.59;;;12.43
67829;BMP280;54626;45.436;10.942;2023-02-28T16:11:41;101056.00;;;11.85
67829;BMP280;54626;45.436;10.942;2023-02-28T16:14:15;101058.22;;;11.61
67829;BMP280;54626;45.436;10.942;2023-02-28T16:16:46;101050.09;;;11.37
67829;BMP280;54626;45.436;10.942;2023-02-28T16:19:14;101048.47;;;11.10
67829;BMP280;54626;45.436;10.942;2023-02-28T16:21:40;101049.81;;;11.04
67829;BMP280;54626;45.436;10.942;2023-02-28T16:24:06;101051.69;;;10.96